Portoroz Secovlje, Slovenia

1:29 PM CEST on May 25, 2015 (GMT +0200)
KPSS - FONTANIGGE | | Change Station
CLOSE
Current Station
Personal Weather Station
Location: Portoroz, PRIMORSKA
Elevation: 5 ft
Nearby Weather Stations

Elev 5 ft 45.47 °N, 13.60 °E | Updated 11 minutes ago

Partly Cloudy
Partly Cloudy
69.6 °F
Feels Like 69.6 °F
N
8.0
Wind Variable Wind from West
Gusts 12.0 mph

Today
High -- | Low -- °F
--% Chance of Precip.
Yesterday
High -- | Low -- °F
Precip. -- in
5:25 AM 8:39 PM
Waxing Crescent, 48% visible
Pressure 29.86 in
Visibility 6.2 miles
Clouds Few 4000 ft
Dew Point 59 °F
Humidity 70%
Rainfall 0.00 in
Snow Depth Not available.
UV 11 out of 12
Pollen Not available.
Air Quality Not available.
Flu Activity Not available.
METAR LIPQ 251120Z 21008KT 140V270 9999 FEW040 23/14 Q1011

More Conditions Fewer Conditions

Pressure 29.86 in
Visibility 6.2 miles
Clouds Few 4000 ft
Dew Point 59 °F
Humidity 70%
Rainfall 0.00 in
Snow Depth Not available.
UV 11 out of 12
Pollen Not available.
Air Quality Not available.
Flu Activity Not available.
METAR LIPQ 251120Z 21008KT 140V270 9999 FEW040 23/14 Q1011

More Conditions Fewer Conditions

10-Day Weather Forecast

Almanac

Astronomy

May. 25, 2015 Rise Set
Actual Time
Civil Twilight
Nautical Twilight
Astronomical Twilight
Moon
Length of Visible Light
Length of Day
Tomorrow will be .
, % of the Moon is Illuminated

Today's Extremes

Country Highs Country Lows

Community

WunderPhotos

Upload Photos

1,823,980 photos uploaded!

WunderBlogs® & News

Nearby

Air Quality

  Air Quality AQ Index Pollutant
Not available.

Snow Depth

Station Depth Elevation

Earthquake Activity

City Distance Mag. Time & Date
Minimum magnitude displayed is 2.5.

Coastal Water Temperatures

Place Temperature

Stations

Nearby Weather Stations

Station Location Temp. Windchill Dew Point Humidity Wind Precip. Elev Updated Type